Time;durP1;ratioP1;P1;durP2;ratioP2;P2;SDS_P1;SDS_P2;PMS_P1;PMS_P2;Temp;Humidity;BMP_temperature;BMP_pressure;BME280_temperature;BME280_humidity;BME280_pressure;Samples;Min_cycle;Max_cycle;Signal;HPM_P1;HPM_P2
2023/10/13 06:49:04;;;;;;;9.35;4.00;;;;;;;17.29;59.53;96509.47;2085058;28;20562;-69
2023/10/13 06:51:31;;;;;;;11.63;4.10;;;;;;;17.87;58.38;96511.34;2082324;28;20569;-69
2023/10/13 06:57:42;;;;;;;6.82;3.47;;;;;;;18.41;56.32;96508.06;2083074;28;20552;-72
2023/10/13 07:00:33;;;;;;;14.50;4.15;;;;;;;18.95;55.29;96513.56;2076310;28;20570;-69
2023/10/13 07:01:39;;;;;;;15.65;4.03;;;;;;;19.19;54.87;96510.72;2069053;28;20195;-70
2023/10/13 07:02:43;;;;;;;11.52;4.22;;;;;;;19.90;53.33;96512.81;2066674;28;20197;-70
2023/10/13 07:03:52;;;;;;;9.70;3.60;;;;;;;20.08;53.25;96516.72;2068274;28;20197;-70
2023/10/13 07:05:07;;;;;;;10.30;4.18;;;;;;;20.09;52.62;96508.63;2062494;28;20218;-70
2023/10/13 07:06:18;;;;;;;15.98;4.38;;;;;;;20.46;52.13;96505.44;2059664;28;20201;-70
2023/10/13 07:07:22;;;;;;;8.93;3.95;;;;;;;20.68;51.76;96511.50;2061876;28;20245;-70
2023/10/13 07:08:25;;;;;;;14.85;3.88;;;;;;;20.83;51.30;96509.38;2060240;28;20221;-71
2023/10/13 07:12:01;;;;;;;10.48;3.55;;;;;;;21.88;49.00;96517.69;2060507;28;20248;-69
2023/10/13 07:13:07;;;;;;;11.40;3.40;;;;;;;22.05;48.41;96521.44;2063701;28;20584;-69
2023/10/13 07:14:16;;;;;;;10.60;3.92;;;;;;;22.23;48.15;96514.38;2064883;28;20202;-70
2023/10/13 07:16:19;;;;;;;12.40;3.92;;;;;;;22.39;48.03;96515.66;2064709;28;20285;-70
2023/10/13 07:17:37;;;;;;;10.15;4.20;;;;;;;22.60;47.27;96520.72;2063102;28;20642;-69
2023/10/13 07:18:49;;;;;;;9.13;3.47;;;;;;;22.44;47.47;96518.72;2061378;28;20206;-70
2023/10/13 07:19:56;;;;;;;14.77;3.85;;;;;;;22.82;46.92;96525.66;2059366;28;20301;-69
2023/10/13 07:20:58;;;;;;;7.80;3.35;;;;;;;22.31;47.53;96516.34;2061111;28;20206;-69
2023/10/13 07:22:20;;;;;;;9.55;4.15;;;;;;;22.32;47.23;96512.69;2062096;28;20657;-69
2023/10/13 07:23:24;;;;;;;17.48;4.00;;;;;;;22.57;47.17;96519.19;2062874;28;20194;-69
2023/10/13 07:24:31;;;;;;;9.35;3.55;;;;;;;22.63;47.01;96515.94;2064891;28;20312;-69
2023/10/13 07:25:37;;;;;;;16.27;3.78;;;;;;;23.19;46.05;96520.44;2064206;28;20230;-70
2023/10/13 07:26:42;;;;;;;10.95;3.80;;;;;;;23.48;46.46;96517.56;2065110;28;20846;-69
2023/10/13 07:27:45;;;;;;;14.98;3.72;;;;;;;23.88;45.02;96518.88;2064295;28;20205;-70
2023/10/13 07:28:46;;;;;;;9.35;3.80;;;;;;;23.58;45.49;96514.81;2062759;28;20282;-70
2023/10/13 07:30:13;;;;;;;15.43;3.88;;;;;;;23.24;46.48;96513.66;2062059;28;20641;-70
2023/10/13 07:31:20;;;;;;;17.33;4.20;;;;;;;23.77;45.97;96509.31;2057819;28;20206;-69
2023/10/13 07:32:26;;;;;;;15.23;4.95;;;;;;;23.99;44.97;96504.50;2059579;28;20194;-70
2023/10/13 07:33:31;;;;;;;11.15;3.80;;;;;;;23.98;44.65;96507.34;2061908;28;20197;-70
2023/10/13 07:34:32;;;;;;;17.88;3.55;;;;;;;24.16;44.70;96504.63;2062027;28;20225;-69
2023/10/13 07:35:35;;;;;;;10.90;3.40;;;;;;;24.83;43.35;96512.00;2062917;28;20191;-71
2023/10/13 07:36:40;;;;;;;9.48;3.65;;;;;;;24.85;43.21;96507.31;2065351;28;20197;-71
2023/10/13 07:37:42;;;;;;;8.35;3.05;;;;;;;24.59;43.47;96500.19;2066252;28;20198;-71
2023/10/13 07:38:59;;;;;;;10.13;3.25;;;;;;;25.42;42.43;96507.50;2063933;28;20198;-71
2023/10/13 07:41:32;;;;;;;8.97;3.50;;;;;;;25.59;41.57;96502.97;2064993;28;20787;-71
2023/10/13 07:42:39;;;;;;;10.65;3.38;;;;;;;24.99;42.88;96508.53;2064287;28;20420;-71
2023/10/13 07:43:43;;;;;;;11.10;3.13;;;;;;;24.85;43.33;96508.16;2061699;28;20829;-71
2023/10/13 07:44:47;;;;;;;10.60;3.30;;;;;;;24.85;42.64;96500.16;2071589;28;20436;-71
2023/10/13 07:45:58;;;;;;;9.80;3.20;;;;;;;24.97;43.11;96506.03;2079558;28;20520;-71
2023/10/13 07:47:04;;;;;;;7.23;3.17;;;;;;;25.19;42.98;96501.06;2073726;28;20431;-71
2023/10/13 07:48:20;;;;;;;9.53;3.73;;;;;;;25.13;43.00;96499.91;2075727;28;20502;-71
2023/10/13 07:49:22;;;;;;;14.73;3.63;;;;;;;24.59;43.34;96505.50;2074360;28;20905;-71
2023/10/13 07:50:27;;;;;;;9.47;3.47;;;;;;;24.73;43.09;96499.59;2069164;28;20458;-71
2023/10/13 07:51:32;;;;;;;9.83;3.77;;;;;;;25.63;42.15;96498.16;2072347;28;20426;-71
2023/10/13 07:52:40;;;;;;;11.63;3.17;;;;;;;25.12;42.19;96492.88;2070015;28;20796;-71
2023/10/13 07:53:48;;;;;;;11.47;3.90;;;;;;;25.65;42.03;96498.81;2072070;28;21101;-71
2023/10/13 07:55:00;;;;;;;18.33;4.30;;;;;;;26.35;40.40;96499.28;2067654;28;20979;-71
2023/10/13 07:56:08;;;;;;;12.27;3.57;;;;;;;26.14;40.83;96492.59;2058570;28;20438;-71
2023/10/13 07:57:14;;;;;;;8.50;4.07;;;;;;;25.97;40.54;96497.13;2060991;28;20461;-71
2023/10/13 07:58:16;;;;;;;16.30;4.33;;;;;;;25.86;41.20;96495.63;2059561;28;20434;-71
2023/10/13 07:59:22;;;;;;;9.63;3.47;;;;;;;24.67;42.89;96488.72;2059173;28;20436;-71
2023/10/13 08:01:45;;;;;;;7.77;2.73;;;;;;;25.81;41.56;96489.94;2063737;28;20515;-71
2023/10/13 08:02:48;;;;;;;10.37;3.40;;;;;;;26.01;40.95;96489.59;2064921;28;20477;-71
2023/10/13 08:04:04;;;;;;;6.47;3.27;;;;;;;25.77;41.18;96487.78;2065899;28;20858;-71
2023/10/13 08:05:13;;;;;;;12.40;3.60;;;;;;;25.42;41.83;96487.97;2064053;28;20537;-71
2023/10/13 08:07:27;;;;;;;9.00;3.47;;;;;;;26.18;40.78;96487.75;2063399;28;20428;-71
2023/10/13 08:08:39;;;;;;;7.70;3.17;;;;;;;25.62;41.04;96475.06;2061546;28;20430;-71
2023/10/13 08:09:41;;;;;;;7.80;3.43;;;;;;;26.54;40.20;96477.44;2061589;28;20432;-71
2023/10/13 08:10:45;;;;;;;12.27;4.00;;;;;;;26.50;40.30;96478.81;2063386;28;20950;-71
2023/10/13 08:11:47;;;;;;;11.43;4.17;;;;;;;26.99;39.58;96482.31;2058055;28;20504;-72
2023/10/13 08:12:48;;;;;;;10.80;3.83;;;;;;;27.34;38.83;96480.09;2061182;28;20430;-71
2023/10/13 08:13:54;;;;;;;9.13;3.03;;;;;;;27.62;38.49;96476.91;2057930;28;20427;-71
2023/10/13 08:15:21;;;;;;;7.17;3.20;;;;;;;27.10;38.76;96478.41;2065162;28;21021;-71
2023/10/13 08:16:23;;;;;;;7.07;3.40;;;;;;;26.85;39.55;96471.31;2067748;28;20423;-71
2023/10/13 08:17:31;;;;;;;13.70;3.30;;;;;;;26.46;40.22;96479.31;2067995;28;20460;-71
2023/10/13 08:18:33;;;;;;;9.30;3.50;;;;;;;26.77;39.92;96476.72;2064621;28;20446;-72
2023/10/13 08:19:47;;;;;;;9.43;3.37;;;;;;;26.70;39.68;96478.38;2062414;28;20429;-71
2023/10/13 08:20:51;;;;;;;10.90;3.10;;;;;;;27.41;38.81;96464.97;2063447;28;20547;-71
2023/10/13 08:22:23;;;;;;;7.70;3.03;;;;;;;27.17;39.36;96468.63;2063463;28;21203;-71
2023/10/13 08:23:38;;;;;;;8.13;2.67;;;;;;;26.82;39.47;96471.69;2066092;28;20439;-71
2023/10/13 08:27:36;;;;;;;8.00;3.83;;;;;;;27.97;38.21;96463.84;2066683;28;20795;-71
2023/10/13 08:31:14;;;;;;;13.53;3.10;;;;;;;27.64;37.62;96464.97;2055131;28;20517;-71
2023/10/13 08:33:32;;;;;;;6.20;2.67;;;;;;;26.69;38.59;96455.28;2059253;28;20507;-71
2023/10/13 08:35:54;;;;;;;9.60;3.30;;;;;;;27.31;38.81;96459.84;2057778;28;20449;-71
2023/10/13 08:36:56;;;;;;;12.83;3.37;;;;;;;27.29;38.83;96453.00;2058306;28;20472;-71
2023/10/13 08:38:04;;;;;;;7.20;3.30;;;;;;;27.01;38.49;96458.88;2058905;28;20497;-71
2023/10/13 08:42:23;;;;;;;11.40;3.27;;;;;;;26.63;38.72;96456.84;2044269;29;20799;-71
2023/10/13 08:43:39;;;;;;;6.70;3.13;;;;;;;26.31;39.20;96457.78;2044220;29;20426;-71
2023/10/13 08:44:52;;;;;;;13.07;3.47;;;;;;;26.68;39.14;96457.16;2044820;29;20462;-71
2023/10/13 08:45:58;;;;;;;8.07;2.97;;;;;;;26.81;38.60;96456.63;2043945;29;20422;-71
2023/10/13 08:47:06;;;;;;;10.32;3.25;;;;;;;26.84;38.77;96442.88;2040462;29;20228;-71
2023/10/13 08:48:13;;;;;;;9.50;3.13;;;;;;;26.84;38.71;96442.88;2040587;29;20196;-71
2023/10/13 08:49:15;;;;;;;8.23;2.63;;;;;;;27.20;38.41;96442.31;2039697;29;20208;-71
2023/10/13 08:51:48;;;;;;;5.63;2.30;;;;;;;27.66;37.98;96444.16;2041371;29;20199;-71
2023/10/13 08:52:56;;;;;;;13.02;3.20;;;;;;;27.86;37.04;96435.63;2042276;29;20452;-71
2023/10/13 08:54:07;;;;;;;9.73;3.23;;;;;;;27.72;37.34;96439.94;2042656;29;20196;-71
2023/10/13 08:55:39;;;;;;;11.32;3.95;;;;;;;28.23;37.11;96441.16;2041817;29;20461;-71
2023/10/13 08:56:36;;;;;;;7.93;2.85;;;;;;;26.88;38.12;96470.97;2042082;29;20604;-71
2023/10/13 08:57:37;;;;;;;6.60;2.50;;;;;;;26.70;38.59;96446.25;2042126;29;20204;-71
2023/10/13 08:59:55;;;;;;;7.45;3.65;;;;;;;26.83;38.12;96440.38;2039686;29;20239;-71
2023/10/13 09:01:11;;;;;;;15.73;3.83;;;;;;;27.18;38.56;96448.88;2044917;29;20203;-71
2023/10/13 09:02:16;;;;;;;13.05;3.30;;;;;;;27.05;38.37;96442.25;2044025;29;20249;-71
2023/10/13 09:03:38;;;;;;;15.60;3.47;;;;;;;27.38;38.08;96433.97;2042470;29;20250;-71
2023/10/13 09:04:44;;;;;;;11.70;3.45;;;;;;;27.26;37.92;96443.47;2043529;29;20282;-71
2023/10/13 09:06:00;;;;;;;10.23;3.13;;;;;;;27.25;38.20;96446.31;2042254;29;20192;-71
2023/10/13 09:08:09;;;;;;;8.52;2.53;;;;;;;28.23;37.23;96436.59;2042287;29;20667;-71
2023/10/13 09:09:26;;;;;;;11.23;2.92;;;;;;;28.09;36.92;96434.75;2041989;29;20690;-71
2023/10/13 09:10:34;;;;;;;13.45;3.85;;;;;;;28.45;36.84;96440.19;2040168;29;20223;-71
2023/10/13 09:11:53;;;;;;;8.15;2.88;;;;;;;27.95;37.32;96436.38;2040135;29;20223;-71
2023/10/13 09:13:00;;;;;;;7.22;3.20;;;;;;;27.58;37.34;96448.75;2043905;29;20450;-71
2023/10/13 09:14:03;;;;;;;9.35;3.00;;;;;;;27.90;37.30;96441.47;2042733;29;20195;-71
2023/10/13 09:18:14;;;;;;;7.90;3.13;;;;;;;28.08;37.19;96438.44;2050733;28;20248;-71
2023/10/13 09:19:16;;;;;;;7.45;2.63;;;;;;;28.02;37.12;96440.81;2056918;28;20191;-71
2023/10/13 09:22:44;;;;;;;4.32;2.20;;;;;;;28.12;36.98;96435.19;2056519;28;20200;-71
2023/10/13 09:23:48;;;;;;;12.18;3.25;;;;;;;27.54;37.24;96435.72;2058207;28;20237;-71
2023/10/13 09:24:51;;;;;;;9.95;3.13;;;;;;;27.18;38.05;96433.59;2058906;28;20823;-71
2023/10/13 09:25:53;;;;;;;11.73;3.60;;;;;;;26.89;38.65;96434.31;2059130;28;20694;-71
2023/10/13 09:27:01;;;;;;;8.23;2.80;;;;;;;27.12;38.61;96437.03;2057960;28;20199;-71
2023/10/13 09:28:02;;;;;;;15.55;3.50;;;;;;;27.46;38.20;96433.09;2056103;28;20195;-71
2023/10/13 09:29:14;;;;;;;10.05;4.20;;;;;;;28.00;37.35;96432.09;2058976;28;20690;-71
2023/10/13 09:30:21;;;;;;;7.35;2.92;;;;;;;28.30;37.08;96423.25;2059419;28;20240;-71
2023/10/13 09:31:26;;;;;;;9.15;3.00;;;;;;;27.93;36.95;96422.31;2059334;28;20244;-71
2023/10/13 09:32:28;;;;;;;5.82;3.15;;;;;;;27.96;36.80;96425.44;2054793;28;20245;-71
2023/10/13 09:33:32;;;;;;;7.53;3.40;;;;;;;28.67;36.82;96422.34;2058299;28;20282;-71
2023/10/13 09:34:40;;;;;;;13.65;3.33;;;;;;;28.68;36.65;96425.84;2056579;28;20197;-71
2023/10/13 09:35:51;;;;;;;10.32;3.80;;;;;;;28.72;36.48;96419.09;2056064;28;20201;-71
2023/10/13 09:36:55;;;;;;;8.68;3.00;;;;;;;28.44;36.80;96429.63;2054016;28;20218;-71
2023/10/13 09:37:58;;;;;;;9.70;3.28;;;;;;;28.95;36.06;96428.81;2054609;28;20399;-71
2023/10/13 09:39:29;;;;;;;7.10;2.63;;;;;;;29.01;36.13;96420.00;2053886;28;20192;-71
2023/10/13 09:41:41;;;;;;;15.13;3.37;;;;;;;29.68;35.00;96426.03;2052551;28;20269;-71
2023/10/13 09:42:43;;;;;;;12.27;3.05;;;;;;;29.79;34.90;96422.00;2053994;28;20488;-72
2023/10/13 09:43:45;;;;;;;7.60;2.45;;;;;;;29.32;35.47;96408.16;2055799;28;20314;-71
2023/10/13 09:44:51;;;;;;;8.43;3.30;;;;;;;29.39;35.64;96411.72;2055499;28;20242;-71
2023/10/13 09:46:02;;;;;;;7.60;2.72;;;;;;;29.39;35.83;96417.09;2056521;28;20246;-71
2023/10/13 09:47:16;;;;;;;9.20;3.10;;;;;;;29.13;35.27;96434.63;2056139;28;20200;-71
2023/10/13 09:48:26;;;;;;;7.77;3.20;;;;;;;28.57;36.33;96405.66;2056923;28;20198;-71
2023/10/13 09:49:44;;;;;;;10.37;3.20;;;;;;;28.71;36.27;96413.88;2058643;28;20455;-71
2023/10/13 09:50:48;;;;;;;7.95;3.35;;;;;;;29.70;35.35;96415.94;2054870;28;20812;-71
2023/10/13 09:51:57;;;;;;;9.00;2.80;;;;;;;29.56;35.40;96408.75;2057189;28;20670;-71
2023/10/13 09:53:00;;;;;;;6.80;2.95;;;;;;;28.59;36.39;96408.16;2056685;28;20436;-71
2023/10/13 09:54:06;;;;;;;10.45;2.70;;;;;;;28.99;35.56;96414.84;2055667;28;20215;-71
2023/10/13 09:55:39;;;;;;;17.60;3.40;;;;;;;28.35;36.24;96416.34;2053572;28;20227;-71
2023/10/13 09:56:54;;;;;;;8.50;3.28;;;;;;;28.70;36.10;96415.75;2054127;28;20431;-71
2023/10/13 09:58:10;;;;;;;17.58;5.50;;;;;;;28.82;36.07;96414.25;2056090;28;20199;-72
2023/10/13 09:59:16;;;;;;;10.82;3.83;;;;;;;29.12;35.62;96416.81;2056112;28;20269;-72
2023/10/13 10:01:50;;;;;;;14.35;3.55;;;;;;;28.27;36.52;96410.22;2054939;28;20719;-72
2023/10/13 10:02:58;;;;;;;6.88;3.85;;;;;;;28.78;36.43;96407.56;2054260;28;20223;-72
2023/10/13 10:04:19;;;;;;;7.97;3.00;;;;;;;28.66;36.28;96403.69;2056015;28;20188;-72
2023/10/13 10:05:25;;;;;;;7.00;3.38;;;;;;;28.60;36.61;96405.25;2055956;28;20227;-72
2023/10/13 10:06:30;;;;;;;8.05;3.10;;;;;;;28.29;36.68;96402.81;2055592;28;20202;-72
2023/10/13 10:07:32;;;;;;;8.48;2.95;;;;;;;27.66;37.80;96389.72;2053276;28;20206;-72
2023/10/13 10:08:34;;;;;;;16.50;3.53;;;;;;;26.88;38.74;96408.53;2057248;28;20203;-71
2023/10/13 10:09:37;;;;;;;7.20;3.65;;;;;;;26.42;39.82;96411.91;2055976;28;20243;-71
2023/10/13 10:11:00;;;;;;;15.27;3.00;;;;;;;26.07;39.91;96408.72;2055690;28;20692;-71
2023/10/13 10:12:25;;;;;;;6.88;2.88;;;;;;;25.91;40.06;96404.19;2058192;28;20287;-71
2023/10/13 10:13:54;;;;;;;11.07;3.60;;;;;;;25.97;39.71;96408.03;2057316;28;20199;-71
2023/10/13 10:15:46;;;;;;;9.80;3.50;;;;;;;26.11;39.63;96410.03;2056730;28;20226;-71
2023/10/13 10:17:03;;;;;;;10.48;3.63;;;;;;;27.12;38.57;96404.03;2055334;28;20198;-72
2023/10/13 10:18:27;;;;;;;9.43;4.38;;;;;;;27.42;37.90;96401.50;2057381;28;20195;-72
2023/10/13 10:19:30;;;;;;;6.85;2.65;;;;;;;27.55;37.51;96404.38;2054719;28;20199;-71
2023/10/13 10:20:42;;;;;;;9.40;3.47;;;;;;;27.75;37.40;96410.06;2053093;28;20224;-71
2023/10/13 10:21:44;;;;;;;8.77;3.10;;;;;;;27.96;37.07;96401.31;2055033;28;20203;-72
2023/10/13 10:22:59;;;;;;;8.40;2.70;;;;;;;28.54;36.51;96408.69;2053275;28;20597;-72
2023/10/13 10:24:07;;;;;;;11.65;3.40;;;;;;;28.91;36.28;96403.38;2052006;28;20265;-72
2023/10/13 10:25:27;;;;;;;6.93;2.70;;;;;;;29.34;35.27;96397.22;2053984;28;20420;-72
2023/10/13 10:26:29;;;;;;;13.18;3.88;;;;;;;29.78;35.20;96405.00;2054376;28;20198;-72
2023/10/13 10:27:32;;;;;;;8.65;3.20;;;;;;;29.74;34.84;96403.75;2056428;28;20203;-72
2023/10/13 10:28:39;;;;;;;10.82;3.80;;;;;;;28.99;35.55;96401.41;2054022;28;20203;-72
2023/10/13 10:29:53;;;;;;;13.10;3.40;;;;;;;28.94;36.27;96394.94;2053261;28;20209;-71
2023/10/13 10:31:05;;;;;;;12.18;3.90;;;;;;;28.71;35.97;96398.63;2053292;28;20610;-71
2023/10/13 10:32:13;;;;;;;11.43;2.88;;;;;;;28.57;36.68;96399.44;2058316;28;20356;-72
2023/10/13 10:33:15;;;;;;;8.25;3.33;;;;;;;28.86;35.60;96393.19;2059468;28;20273;-71
2023/10/13 10:34:21;;;;;;;10.38;3.30;;;;;;;29.60;35.50;96385.84;2057798;28;20195;-72
2023/10/13 10:35:26;;;;;;;11.80;3.40;;;;;;;30.39;34.41;96392.78;2058141;28;20257;-72
2023/10/13 10:36:31;;;;;;;14.07;2.88;;;;;;;31.32;33.43;96388.72;2057897;28;20282;-72
2023/10/13 10:37:34;;;;;;;6.55;2.90;;;;;;;31.07;32.88;96383.09;2057541;28;20654;-72
2023/10/13 10:38:38;;;;;;;8.98;3.53;;;;;;;30.98;33.38;96377.03;2054749;28;20221;-71
2023/10/13 10:39:45;;;;;;;9.30;3.40;;;;;;;31.61;33.18;96375.88;2057385;28;20202;-71
2023/10/13 10:41:04;;;;;;;12.77;3.45;;;;;;;31.40;33.04;96385.84;2057364;28;20437;-71
2023/10/13 10:42:23;;;;;;;6.77;2.60;;;;;;;31.53;32.95;96370.72;2057544;28;20221;-72
2023/10/13 10:43:29;;;;;;;6.67;2.90;;;;;;;30.58;33.74;96376.94;2059334;28;20515;-71
2023/10/13 10:44:42;;;;;;;5.70;2.73;;;;;;;30.65;32.98;96385.84;2056227;28;20429;-73
2023/10/13 10:45:51;;;;;;;11.63;3.10;;;;;;;29.46;34.53;96366.09;2061491;28;20473;-72
2023/10/13 10:46:57;;;;;;;8.03;3.27;;;;;;;29.24;34.69;96362.56;2063704;28;20427;-73
2023/10/13 10:47:59;;;;;;;6.93;2.83;;;;;;;29.61;34.51;96368.66;2055547;28;20428;-73
2023/10/13 10:49:04;;;;;;;7.47;2.40;;;;;;;29.64;33.98;96358.34;2054597;28;20546;-73
2023/10/13 10:50:19;;;;;;;8.37;3.23;;;;;;;30.03;33.73;96361.53;2054031;28;20466;-73
2023/10/13 10:51:22;;;;;;;12.37;3.37;;;;;;;29.40;34.54;96367.69;2056566;28;20428;-73
2023/10/13 10:52:27;;;;;;;9.63;3.60;;;;;;;29.70;34.40;96364.81;2054467;28;20435;-73
2023/10/13 10:53:44;;;;;;;14.33;3.30;;;;;;;30.58;33.98;96360.78;2056436;28;21036;-73
2023/10/13 10:54:57;;;;;;;7.03;3.23;;;;;;;31.32;33.15;96367.16;2058021;28;20903;-73
2023/10/13 10:56:19;;;;;;;8.50;2.80;;;;;;;30.56;33.23;96360.13;2057585;28;20462;-73
2023/10/13 10:57:28;;;;;;;10.40;2.70;;;;;;;30.29;33.57;96360.00;2054895;28;20417;-69
2023/10/13 10:58:43;;;;;;;18.70;4.40;;;;;;;30.73;32.82;96356.06;2056461;28;20468;-70
2023/10/13 10:59:46;;;;;;;6.87;3.40;;;;;;;30.77;33.00;96356.47;2053590;28;20483;-70
2023/10/13 11:00:50;;;;;;;15.50;4.93;;;;;;;31.02;33.13;96353.19;2055430;28;20515;-70
2023/10/13 11:01:52;;;;;;;16.03;5.03;;;;;;;30.50;32.63;96377.09;2055257;28;20536;-70
2023/10/13 11:02:57;;;;;;;8.23;4.00;;;;;;;30.49;32.91;96352.03;2054267;28;20504;-71
2023/10/13 11:04:08;;;;;;;7.27;3.10;;;;;;;30.06;32.47;96350.38;2052915;28;20421;-70
2023/10/13 11:05:10;;;;;;;8.67;3.07;;;;;;;30.06;32.79;96355.75;2049477;28;20496;-70
2023/10/13 11:06:20;;;;;;;9.17;4.23;;;;;;;30.10;32.64;96353.50;2049532;28;20538;-71
2023/10/13 11:07:23;;;;;;;8.77;3.47;;;;;;;30.10;32.93;96350.81;2054709;28;21256;-71
2023/10/13 11:08:31;;;;;;;15.63;5.97;;;;;;;30.24;32.75;96357.09;2061041;28;20427;-71
2023/10/13 11:10:38;;;;;;;9.43;4.27;;;;;;;30.42;32.65;96349.31;2054098;28;20790;-72
2023/10/13 11:11:43;;;;;;;9.80;3.30;;;;;;;30.41;32.72;96344.09;2055186;28;20925;-72
2023/10/13 11:13:16;;;;;;;9.43;2.90;;;;;;;29.86;33.45;96335.94;2056458;28;20487;-71
2023/10/13 11:14:25;;;;;;;14.43;4.33;;;;;;;29.07;34.28;96341.31;2057917;28;20432;-70
2023/10/13 11:15:33;;;;;;;11.03;3.13;;;;;;;28.33;34.58;96337.81;2056855;28;20468;-70
2023/10/13 11:16:37;;;;;;;6.28;2.92;;;;;;;28.14;34.73;96333.88;2055474;28;20439;-70
2023/10/13 11:17:43;;;;;;;15.98;3.10;;;;;;;28.00;34.62;96329.34;2056961;28;20259;-70
2023/10/13 11:18:45;;;;;;;11.52;3.53;;;;;;;28.87;34.08;96333.06;2056877;28;20199;-70
2023/10/13 11:19:49;;;;;;;13.60;3.40;;;;;;;29.35;33.69;96326.28;2054530;28;20198;-70
2023/10/13 11:20:56;;;;;;;8.80;3.00;;;;;;;28.69;33.91;96338.88;2052961;28;20219;-70
2023/10/13 11:21:57;;;;;;;9.07;2.80;;;;;;;28.78;34.25;96332.34;2058920;28;20618;-70
2023/10/13 11:22:59;;;;;;;12.25;2.90;;;;;;;28.44;34.86;96333.84;2057991;28;20424;-71
2023/10/13 11:24:08;;;;;;;10.38;3.40;;;;;;;28.32;34.78;96324.59;2057271;28;20195;-70
2023/10/13 11:25:10;;;;;;;6.22;2.83;;;;;;;28.52;34.54;96333.72;2057156;28;20223;-64
2023/10/13 11:26:11;;;;;;;6.22;2.30;;;;;;;28.88;34.62;96329.34;2056761;28;20815;-66
2023/10/13 11:27:43;;;;;;;14.40;3.30;;;;;;;28.70;34.42;96327.13;2054919;28;20195;-65
2023/10/13 11:28:50;;;;;;;19.00;3.22;;;;;;;28.92;34.46;96327.94;2056595;28;20227;-65
2023/10/13 11:29:52;;;;;;;10.35;3.20;;;;;;;28.69;34.21;96322.75;2054565;28;20264;-70
2023/10/13 11:31:10;;;;;;;7.95;3.00;;;;;;;28.37;34.73;96321.34;2055519;28;20302;-64
2023/10/13 11:32:19;;;;;;;5.88;2.58;;;;;;;28.65;34.42;96322.28;2054945;28;20324;-63
2023/10/13 11:33:23;;;;;;;11.73;3.08;;;;;;;29.03;33.92;96323.06;2055564;28;20682;-62
2023/10/13 11:34:30;;;;;;;12.35;3.05;;;;;;;29.26;34.31;96322.88;2055972;28;20661;-64
2023/10/13 11:36:55;;;;;;;20.65;2.92;;;;;;;29.40;33.42;96318.47;2055392;28;20582;-64
2023/10/13 11:38:03;;;;;;;14.57;4.15;;;;;;;29.90;33.54;96319.25;2056544;28;20195;-63
2023/10/13 11:39:07;;;;;;;23.58;13.85;;;;;;;29.35;33.55;96308.28;2056459;28;20187;-64
2023/10/13 11:40:12;;;;;;;11.93;2.50;;;;;;;29.59;33.24;96311.56;2054223;28;20219;-64
2023/10/13 11:41:21;;;;;;;7.00;2.80;;;;;;;29.44;33.33;96319.72;2053976;28;20191;-65
2023/10/13 11:42:26;;;;;;;11.13;3.33;;;;;;;29.46;33.12;96309.63;2052412;28;20223;-64
2023/10/13 11:43:28;;;;;;;11.60;3.30;;;;;;;30.00;33.26;96313.47;2054937;28;20196;-64
2023/10/13 11:44:33;;;;;;;10.02;2.50;;;;;;;29.92;32.93;96309.09;2052321;28;20203;-64
2023/10/13 11:45:36;;;;;;;10.50;3.25;;;;;;;29.90;32.71;96302.25;2052710;28;20219;-64
2023/10/13 11:47:58;;;;;;;13.60;2.60;;;;;;;30.21;32.56;96314.44;2056197;28;20203;-64
2023/10/13 11:49:17;;;;;;;10.77;3.22;;;;;;;29.94;32.56;96298.13;2056266;28;20708;-65
2023/10/13 11:50:32;;;;;;;8.27;3.03;;;;;;;29.52;32.83;96310.69;2058841;28;20321;-66
2023/10/13 11:51:38;;;;;;;10.75;2.92;;;;;;;29.49;32.74;96304.66;2055707;28;20834;-64
2023/10/13 11:52:40;;;;;;;6.15;2.30;;;;;;;29.62;33.12;96303.09;2056177;28;20240;-64
2023/10/13 11:53:41;;;;;;;5.78;2.58;;;;;;;29.41;33.12;96304.81;2055402;28;20218;-64
2023/10/13 11:54:43;;;;;;;8.82;2.70;;;;;;;29.39;33.01;96306.88;2057543;28;20607;-64
2023/10/13 11:55:45;;;;;;;15.95;2.38;;;;;;;29.25;33.10;96308.59;2053893;28;20724;-64
2023/10/13 11:56:47;;;;;;;9.00;3.35;;;;;;;29.65;33.10;96302.72;2058410;28;20203;-64
2023/10/13 11:57:49;;;;;;;7.00;2.90;;;;;;;29.52;32.74;96297.25;2057834;28;20206;-64
2023/10/13 11:58:51;;;;;;;7.32;2.60;;;;;;;29.34;33.28;96309.31;2055229;28;20432;-64
2023/10/13 11:59:53;;;;;;;7.43;3.00;;;;;;;29.51;33.24;96299.13;2058024;28;20309;-65
2023/10/13 12:01:19;;;;;;;20.83;3.42;;;;;;;29.97;33.38;96295.06;2058223;28;20206;-64
2023/10/13 12:05:11;;;;;;;5.35;2.20;;;;;;;30.01;31.89;96293.63;2053788;28;21201;-65
2023/10/13 12:07:02;;;;;;;9.90;3.47;;;;;;;30.06;32.24;96280.38;2056316;28;20237;-65
2023/10/13 12:07:48;;;;;;;11.20;3.20;;;;;;;30.07;32.25;96282.06;2055856;28;20556;-64
2023/10/13 12:08:51;;;;;;;8.77;3.10;;;;;;;30.14;32.26;96284.75;2056599;28;20951;-65
2023/10/13 12:11:00;;;;;;;7.43;2.77;;;;;;;30.23;31.99;96275.50;2059248;28;20429;-65
2023/10/13 12:12:04;;;;;;;7.77;3.00;;;;;;;30.50;31.63;96280.16;2059243;28;20508;-65
2023/10/13 12:13:05;;;;;;;8.40;2.90;;;;;;;30.30;32.23;96275.50;2058517;28;20497;-64
2023/10/13 12:14:16;;;;;;;6.93;3.00;;;;;;;30.61;32.01;96282.25;2058451;28;20420;-64
2023/10/13 12:15:36;;;;;;;15.90;3.50;;;;;;;30.09;32.29;96271.94;2058182;28;20473;-65
2023/10/13 12:16:38;;;;;;;7.37;2.87;;;;;;;30.44;32.56;96268.31;2057464;28;20459;-65
2023/10/13 12:17:43;;;;;;;9.00;3.00;;;;;;;30.40;32.19;96270.56;2056174;28;20494;-65
2023/10/13 12:18:53;;;;;;;8.87;2.83;;;;;;;30.62;32.17;96257.78;2056243;28;20805;-68
2023/10/13 12:19:56;;;;;;;7.13;3.13;;;;;;;31.02;31.81;96267.78;2052588;28;20463;-68
2023/10/13 12:21:01;;;;;;;6.00;2.33;;;;;;;31.17;31.15;96264.09;2057666;28;20428;-69
2023/10/13 12:22:08;;;;;;;11.83;2.30;;;;;;;31.36;30.54;96255.16;2058576;28;20436;-68
2023/10/13 12:23:15;;;;;;;7.33;3.50;;;;;;;31.40;31.20;96258.25;2057091;28;20456;-68
2023/10/13 12:26:58;;;;;;;13.83;3.63;;;;;;;30.45;31.82;96253.81;2055547;28;20429;-68
2023/10/13 12:28:18;;;;;;;12.73;3.03;;;;;;;30.40;31.32;96253.59;2054291;28;20510;-68
2023/10/13 12:29:22;;;;;;;10.57;3.13;;;;;;;30.36;31.24;96253.16;2051887;28;20479;-68
2023/10/13 12:30:48;;;;;;;7.60;2.70;;;;;;;30.48;30.87;96244.53;2054895;28;20517;-65
2023/10/13 12:33:24;;;;;;;17.07;3.50;;;;;;;30.45;30.98;96234.97;2055365;28;20510;-64
2023/10/13 12:34:57;;;;;;;12.63;2.50;;;;;;;30.61;31.12;96239.16;2063875;28;20466;-65
2023/10/13 12:36:06;;;;;;;7.03;3.30;;;;;;;30.82;31.27;96237.28;2057309;28;20528;-66
2023/10/13 12:37:30;;;;;;;6.20;2.80;;;;;;;31.17;31.06;96232.53;2056462;28;20436;-65
2023/10/13 12:49:49;;;;;;;13.43;2.80;;;;;;;30.10;31.54;96222.44;2055860;28;20426;-65
2023/10/13 12:51:07;;;;;;;11.97;2.90;;;;;;;30.19;31.45;96215.00;2057739;28;20474;-65
2023/10/13 12:53:30;;;;;;;21.17;2.80;;;;;;;30.92;31.22;96217.00;2060226;28;20978;-66
2023/10/13 12:54:39;;;;;;;12.77;3.07;;;;;;;30.75;31.23;96216.59;2057394;28;20515;-66
2023/10/13 12:55:40;;;;;;;5.70;2.67;;;;;;;30.19;31.26;96227.66;2057418;28;20834;-65
2023/10/13 12:56:42;;;;;;;8.87;2.67;;;;;;;29.89;31.29;96218.03;2055168;28;20777;-66
2023/10/13 12:57:44;;;;;;;11.33;2.50;;;;;;;30.09;30.98;96218.09;2054894;28;20428;-65
2023/10/13 12:58:51;;;;;;;7.20;2.70;;;;;;;29.96;31.23;96216.16;2059128;28;20441;-65
2023/10/13 12:59:54;;;;;;;13.10;2.60;;;;;;;29.79;31.10;96214.84;2056423;28;20483;-65
2023/10/13 13:01:06;;;;;;;10.13;2.70;;;;;;;29.92;31.32;96224.88;2059164;28;20433;-66
2023/10/13 13:02:14;;;;;;;18.60;4.60;;;;;;;29.76;31.89;96207.16;2058133;28;20482;-65
2023/10/13 13:03:21;;;;;;;10.10;3.00;;;;;;;29.95;31.98;96213.69;2053528;28;20465;-65
2023/10/13 13:04:25;;;;;;;8.43;2.80;;;;;;;29.91;31.64;96205.19;2053770;28;20443;-68
2023/10/13 13:05:31;;;;;;;12.03;2.67;;;;;;;29.79;31.20;96207.59;2056551;28;20520;-69
2023/10/13 13:06:32;;;;;;;6.30;2.53;;;;;;;29.86;31.65;96198.72;2064703;28;20474;-68
2023/10/13 13:07:43;;;;;;;9.90;2.90;;;;;;;30.10;31.06;96206.28;2061811;28;20424;-68
2023/10/13 13:08:46;;;;;;;8.53;2.73;;;;;;;29.98;31.15;96194.47;2055384;28;20957;-68
2023/10/13 13:09:48;;;;;;;6.83;2.60;;;;;;;30.12;31.27;96203.41;2058089;28;20483;-68
2023/10/13 13:10:51;;;;;;;6.07;2.60;;;;;;;30.42;31.07;96195.81;2058082;28;20445;-68